Terminal Aerodrome Forecast
Issued by NWS

Home | Current Version | Previous Version | Text Only | Print | Product List | Glossary On
Versions: 1 2 3 4 5 6 7 8 9 10 11 12 13 14 15 16 17
644
FTUS46 KLOX 281805 AAB
TAFSBP
TAF AMD
KSBP 281805Z 2818/2918 29006KT P6SM SKC
     FM282100 31015KT P6SM SKC
     FM290300 33006KT P6SM SCT005
     FM290900 VRB03KT P6SM SKC
     FM291100 VRB03KT 5SM BR BKN010=

USA.gov is the U.S. government's official web portal to all federal, state and local government web resources and services.